sensor_id;sensor_type;location;lat;lon;timestamp;pressure;altitude;pressure_sealevel;temperature;humidity
10014;BME280;45684;48.358;10.746;2022-07-01T00:00:49;96036.50;;;20.01;97.20
10014;BME280;45684;48.358;10.746;2022-07-01T00:03:17;96043.06;;;19.90;98.30
10014;BME280;45684;48.358;10.746;2022-07-01T00:05:46;96037.59;;;19.93;98.43
10014;BME280;45684;48.358;10.746;2022-07-01T00:08:14;96037.88;;;19.77;100.00
10014;BME280;45684;48.358;10.746;2022-07-01T00:10:42;96034.50;;;19.57;100.00
10014;BME280;45684;48.358;10.746;2022-07-01T00:13:10;96054.97;;;19.60;100.00
10014;BME280;45684;48.358;10.746;2022-07-01T00:15:37;96061.50;;;19.52;100.00
10014;BME280;45684;48.358;10.746;2022-07-01T00:18:05;96064.59;;;19.47;100.00
10014;BME280;45684;48.358;10.746;2022-07-01T00:20:33;96088.50;;;19.46;100.00
10014;BME280;45684;48.358;10.746;2022-07-01T00:23:03;96090.44;;;19.46;100.00
10014;BME280;45684;48.358;10.746;2022-07-01T00:25:31;96088.69;;;19.30;100.00
10014;BME280;45684;48.358;10.746;2022-07-01T00:27:58;96084.81;;;19.31;100.00
10014;BME280;45684;48.358;10.746;2022-07-01T00:30:27;96085.88;;;19.23;100.00
10014;BME280;45684;48.358;10.746;2022-07-01T00:32:56;96097.25;;;19.25;100.00
10014;BME280;45684;48.358;10.746;2022-07-01T00:35:24;96098.03;;;19.22;100.00
10014;BME280;45684;48.358;10.746;2022-07-01T00:37:52;96096.00;;;19.19;100.00
10014;BME280;45684;48.358;10.746;2022-07-01T00:40:22;96102.28;;;19.20;100.00
10014;BME280;45684;48.358;10.746;2022-07-01T00:42:49;96103.16;;;19.27;100.00
10014;BME280;45684;48.358;10.746;2022-07-01T00:45:17;96098.38;;;19.21;100.00
10014;BME280;45684;48.358;10.746;2022-07-01T00:47:45;96089.47;;;19.27;100.00
10014;BME280;45684;48.358;10.746;2022-07-01T00:50:15;96086.59;;;19.17;100.00
10014;BME280;45684;48.358;10.746;2022-07-01T00:52:44;96078.72;;;19.15;100.00
10014;BME280;45684;48.358;10.746;2022-07-01T00:55:13;96081.34;;;19.04;100.00
10014;BME280;45684;48.358;10.746;2022-07-01T00:57:43;96069.47;;;18.93;100.00
10014;BME280;45684;48.358;10.746;2022-07-01T01:00:14;96064.03;;;18.97;100.00
10014;BME280;45684;48.358;10.746;2022-07-01T01:02:43;96077.66;;;18.90;100.00
10014;BME280;45684;48.358;10.746;2022-07-01T01:05:10;96073.41;;;18.96;100.00
10014;BME280;45684;48.358;10.746;2022-07-01T01:07:39;96074.16;;;18.93;100.00
10014;BME280;45684;48.358;10.746;2022-07-01T01:10:07;96085.09;;;18.89;100.00
10014;BME280;45684;48.358;10.746;2022-07-01T01:12:36;96060.66;;;18.77;100.00
10014;BME280;45684;48.358;10.746;2022-07-01T01:15:06;96054.38;;;18.76;100.00
10014;BME280;45684;48.358;10.746;2022-07-01T01:17:34;96048.75;;;18.66;100.00
10014;BME280;45684;48.358;10.746;2022-07-01T01:20:03;96037.06;;;18.69;100.00
10014;BME280;45684;48.358;10.746;2022-07-01T01:22:32;96027.31;;;18.71;100.00
10014;BME280;45684;48.358;10.746;2022-07-01T01:25:00;96028.75;;;18.65;100.00
10014;BME280;45684;48.358;10.746;2022-07-01T01:27:30;96023.25;;;18.61;100.00
10014;BME280;45684;48.358;10.746;2022-07-01T01:29:58;96021.34;;;18.66;100.00
10014;BME280;45684;48.358;10.746;2022-07-01T01:32:26;96044.78;;;18.63;100.00
10014;BME280;45684;48.358;10.746;2022-07-01T01:34:54;96048.56;;;18.55;100.00
10014;BME280;45684;48.358;10.746;2022-07-01T01:37:22;96046.16;;;18.50;100.00
10014;BME280;45684;48.358;10.746;2022-07-01T01:39:51;96049.41;;;18.59;100.00
10014;BME280;45684;48.358;10.746;2022-07-01T01:42:19;96040.84;;;18.60;100.00
10014;BME280;45684;48.358;10.746;2022-07-01T01:44:46;96039.63;;;18.58;100.00
10014;BME280;45684;48.358;10.746;2022-07-01T01:47:14;96041.25;;;18.63;100.00
10014;BME280;45684;48.358;10.746;2022-07-01T01:49:42;96036.16;;;18.61;100.00
10014;BME280;45684;48.358;10.746;2022-07-01T01:52:10;96036.47;;;18.56;100.00
10014;BME280;45684;48.358;10.746;2022-07-01T01:54:38;96029.72;;;18.50;100.00
10014;BME280;45684;48.358;10.746;2022-07-01T01:57:07;96033.31;;;18.54;100.00
10014;BME280;45684;48.358;10.746;2022-07-01T01:59:35;96040.75;;;18.53;100.00
10014;BME280;45684;48.358;10.746;2022-07-01T02:02:03;96044.25;;;18.54;100.00
10014;BME280;45684;48.358;10.746;2022-07-01T02:04:31;96052.03;;;18.48;100.00
10014;BME280;45684;48.358;10.746;2022-07-01T02:07:00;96049.28;;;18.48;100.00
10014;BME280;45684;48.358;10.746;2022-07-01T02:09:27;96061.44;;;18.51;100.00
10014;BME280;45684;48.358;10.746;2022-07-01T02:11:56;96057.97;;;18.54;100.00
10014;BME280;45684;48.358;10.746;2022-07-01T02:14:25;96059.13;;;18.53;100.00
10014;BME280;45684;48.358;10.746;2022-07-01T02:16:53;96057.50;;;18.48;100.00
10014;BME280;45684;48.358;10.746;2022-07-01T02:19:20;96065.72;;;18.48;100.00
10014;BME280;45684;48.358;10.746;2022-07-01T02:21:48;96079.81;;;18.50;100.00
10014;BME280;45684;48.358;10.746;2022-07-01T02:24:17;96075.09;;;18.47;100.00
10014;BME280;45684;48.358;10.746;2022-07-01T02:26:45;96074.31;;;18.47;100.00
10014;BME280;45684;48.358;10.746;2022-07-01T02:29:13;96080.38;;;18.36;100.00
10014;BME280;45684;48.358;10.746;2022-07-01T02:31:42;96091.47;;;18.44;100.00
10014;BME280;45684;48.358;10.746;2022-07-01T02:34:10;96105.34;;;18.31;100.00
10014;BME280;45684;48.358;10.746;2022-07-01T02:36:38;96107.69;;;18.29;100.00
10014;BME280;45684;48.358;10.746;2022-07-01T02:39:05;96122.16;;;18.30;100.00
10014;BME280;45684;48.358;10.746;2022-07-01T02:41:33;96126.31;;;18.20;100.00
10014;BME280;45684;48.358;10.746;2022-07-01T02:44:22;96131.09;;;18.27;100.00
10014;BME280;45684;48.358;10.746;2022-07-01T02:46:51;96142.53;;;18.32;100.00
10014;BME280;45684;48.358;10.746;2022-07-01T02:49:18;96143.09;;;18.19;100.00
10014;BME280;45684;48.358;10.746;2022-07-01T02:51:46;96137.97;;;18.17;100.00
10014;BME280;45684;48.358;10.746;2022-07-01T02:54:14;96137.13;;;18.13;100.00
10014;BME280;45684;48.358;10.746;2022-07-01T02:56:42;96150.31;;;18.07;100.00
10014;BME280;45684;48.358;10.746;2022-07-01T02:59:10;96150.25;;;18.04;100.00
10014;BME280;45684;48.358;10.746;2022-07-01T03:01:38;96140.25;;;18.12;100.00
10014;BME280;45684;48.358;10.746;2022-07-01T03:04:07;96134.44;;;18.17;100.00
10014;BME280;45684;48.358;10.746;2022-07-01T03:06:35;96124.22;;;18.14;100.00
10014;BME280;45684;48.358;10.746;2022-07-01T03:09:03;96126.25;;;18.17;100.00
10014;BME280;45684;48.358;10.746;2022-07-01T03:11:31;96125.75;;;18.11;100.00
10014;BME280;45684;48.358;10.746;2022-07-01T03:13:59;96115.34;;;18.20;100.00
10014;BME280;45684;48.358;10.746;2022-07-01T03:16:27;96109.44;;;18.18;100.00
10014;BME280;45684;48.358;10.746;2022-07-01T03:18:55;96117.06;;;18.28;100.00
10014;BME280;45684;48.358;10.746;2022-07-01T03:21:24;96131.09;;;18.27;100.00
10014;BME280;45684;48.358;10.746;2022-07-01T03:23:52;96146.06;;;18.33;100.00
10014;BME280;45684;48.358;10.746;2022-07-01T03:26:19;96138.66;;;18.33;100.00
10014;BME280;45684;48.358;10.746;2022-07-01T03:28:48;96138.75;;;18.41;100.00
10014;BME280;45684;48.358;10.746;2022-07-01T03:31:15;96140.03;;;18.47;100.00
10014;BME280;45684;48.358;10.746;2022-07-01T03:33:43;96128.22;;;18.43;100.00
10014;BME280;45684;48.358;10.746;2022-07-01T03:36:11;96116.97;;;18.48;100.00
10014;BME280;45684;48.358;10.746;2022-07-01T03:38:42;96110.16;;;18.38;100.00
10014;BME280;45684;48.358;10.746;2022-07-01T03:41:10;96099.56;;;18.36;100.00
10014;BME280;45684;48.358;10.746;2022-07-01T03:43:37;96091.00;;;18.38;100.00
10014;BME280;45684;48.358;10.746;2022-07-01T03:46:05;96087.56;;;18.45;100.00
10014;BME280;45684;48.358;10.746;2022-07-01T03:48:33;96085.34;;;18.54;100.00
10014;BME280;45684;48.358;10.746;2022-07-01T03:51:07;96077.59;;;18.59;100.00
10014;BME280;45684;48.358;10.746;2022-07-01T03:53:35;96079.59;;;18.63;100.00
10014;BME280;45684;48.358;10.746;2022-07-01T03:56:22;96074.53;;;18.65;100.00
10014;BME280;45684;48.358;10.746;2022-07-01T03:58:50;96072.81;;;18.53;100.00
10014;BME280;45684;48.358;10.746;2022-07-01T04:01:17;96082.28;;;18.59;100.00
10014;BME280;45684;48.358;10.746;2022-07-01T04:03:45;96076.47;;;18.64;100.00
10014;BME280;45684;48.358;10.746;2022-07-01T04:06:14;96067.97;;;18.69;100.00
10014;BME280;45684;48.358;10.746;2022-07-01T04:08:42;96070.75;;;18.73;100.00
10014;BME280;45684;48.358;10.746;2022-07-01T04:11:10;96065.97;;;18.66;100.00
10014;BME280;45684;48.358;10.746;2022-07-01T04:13:39;96061.75;;;18.72;100.00
10014;BME280;45684;48.358;10.746;2022-07-01T04:16:07;96036.38;;;18.79;100.00
10014;BME280;45684;48.358;10.746;2022-07-01T04:18:35;96049.63;;;18.73;100.00
10014;BME280;45684;48.358;10.746;2022-07-01T04:21:03;96080.88;;;18.42;100.00
10014;BME280;45684;48.358;10.746;2022-07-01T04:23:49;96116.44;;;18.39;100.00
10014;BME280;45684;48.358;10.746;2022-07-01T04:26:17;96129.50;;;18.26;100.00
10014;BME280;45684;48.358;10.746;2022-07-01T04:29:06;96166.88;;;18.15;100.00
10014;BME280;45684;48.358;10.746;2022-07-01T04:31:35;96176.59;;;18.12;100.00
10014;BME280;45684;48.358;10.746;2022-07-01T04:34:04;96173.81;;;18.08;100.00
10014;BME280;45684;48.358;10.746;2022-07-01T04:36:32;96174.34;;;18.18;100.00
10014;BME280;45684;48.358;10.746;2022-07-01T04:39:01;96176.06;;;18.26;100.00
10014;BME280;45684;48.358;10.746;2022-07-01T04:41:29;96180.03;;;18.28;100.00
10014;BME280;45684;48.358;10.746;2022-07-01T04:44:16;96189.75;;;18.26;100.00
10014;BME280;45684;48.358;10.746;2022-07-01T04:46:44;96197.16;;;18.25;100.00
10014;BME280;45684;48.358;10.746;2022-07-01T04:49:12;96204.59;;;18.25;100.00
10014;BME280;45684;48.358;10.746;2022-07-01T04:51:40;96208.97;;;18.06;100.00
10014;BME280;45684;48.358;10.746;2022-07-01T04:54:08;96206.34;;;17.91;100.00
10014;BME280;45684;48.358;10.746;2022-07-01T04:56:37;96206.91;;;17.61;100.00
10014;BME280;45684;48.358;10.746;2022-07-01T04:59:10;96223.47;;;17.49;100.00
10014;BME280;45684;48.358;10.746;2022-07-01T05:01:39;96204.88;;;17.19;100.00
10014;BME280;45684;48.358;10.746;2022-07-01T05:04:07;96213.59;;;16.90;100.00
10014;BME280;45684;48.358;10.746;2022-07-01T05:06:37;96215.72;;;16.80;100.00
10014;BME280;45684;48.358;10.746;2022-07-01T05:09:05;96222.75;;;16.81;100.00
10014;BME280;45684;48.358;10.746;2022-07-01T05:11:33;96219.16;;;16.93;100.00
10014;BME280;45684;48.358;10.746;2022-07-01T05:14:01;96221.97;;;16.49;100.00
10014;BME280;45684;48.358;10.746;2022-07-01T05:16:28;96239.31;;;16.57;100.00
10014;BME280;45684;48.358;10.746;2022-07-01T05:18:58;96235.09;;;16.44;100.00
10014;BME280;45684;48.358;10.746;2022-07-01T05:21:43;96234.53;;;16.22;100.00
10014;BME280;45684;48.358;10.746;2022-07-01T05:24:32;96262.09;;;16.17;100.00
10014;BME280;45684;48.358;10.746;2022-07-01T05:27:00;96272.22;;;15.89;100.00
10014;BME280;45684;48.358;10.746;2022-07-01T05:29:29;96269.63;;;15.92;100.00
10014;BME280;45684;48.358;10.746;2022-07-01T05:31:57;96259.66;;;15.84;100.00
10014;BME280;45684;48.358;10.746;2022-07-01T05:34:26;96271.47;;;15.76;100.00
10014;BME280;45684;48.358;10.746;2022-07-01T05:36:53;96266.84;;;15.76;100.00
10014;BME280;45684;48.358;10.746;2022-07-01T05:39:21;96271.59;;;15.79;100.00
10014;BME280;45684;48.358;10.746;2022-07-01T05:41:49;96267.22;;;15.63;100.00
10014;BME280;45684;48.358;10.746;2022-07-01T05:44:17;96278.69;;;15.56;100.00
10014;BME280;45684;48.358;10.746;2022-07-01T05:46:45;96262.44;;;15.60;100.00
10014;BME280;45684;48.358;10.746;2022-07-01T05:49:12;96274.38;;;15.55;100.00
10014;BME280;45684;48.358;10.746;2022-07-01T05:51:46;96279.16;;;15.46;100.00
10014;BME280;45684;48.358;10.746;2022-07-01T05:54:14;96284.13;;;15.56;100.00
10014;BME280;45684;48.358;10.746;2022-07-01T05:56:42;96280.63;;;15.55;100.00
10014;BME280;45684;48.358;10.746;2022-07-01T05:59:10;96283.72;;;15.42;100.00
10014;BME280;45684;48.358;10.746;2022-07-01T06:01:38;96289.59;;;15.56;100.00
10014;BME280;45684;48.358;10.746;2022-07-01T06:04:05;96284.50;;;15.67;100.00
10014;BME280;45684;48.358;10.746;2022-07-01T06:06:33;96298.69;;;15.72;100.00
10014;BME280;45684;48.358;10.746;2022-07-01T06:09:03;96291.22;;;15.85;100.00
10014;BME280;45684;48.358;10.746;2022-07-01T06:11:30;96317.28;;;15.82;100.00
10014;BME280;45684;48.358;10.746;2022-07-01T06:13:59;96316.53;;;15.98;100.00
10014;BME280;45684;48.358;10.746;2022-07-01T06:16:27;96318.97;;;15.75;100.00
10014;BME280;45684;48.358;10.746;2022-07-01T06:18:57;96316.53;;;15.98;100.00
10014;BME280;45684;48.358;10.746;2022-07-01T06:21:26;96325.59;;;15.74;100.00
10014;BME280;45684;48.358;10.746;2022-07-01T06:23:54;96325.03;;;15.68;100.00
10014;BME280;45684;48.358;10.746;2022-07-01T06:26:23;96316.44;;;15.42;100.00
10014;BME280;45684;48.358;10.746;2022-07-01T06:28:51;96324.34;;;15.71;100.00
10014;BME280;45684;48.358;10.746;2022-07-01T06:31:18;96333.91;;;15.53;100.00
10014;BME280;45684;48.358;10.746;2022-07-01T06:33:46;96335.59;;;15.57;100.00
10014;BME280;45684;48.358;10.746;2022-07-01T06:36:14;96337.63;;;15.73;100.00
10014;BME280;45684;48.358;10.746;2022-07-01T06:38:42;96347.31;;;15.58;100.00
10014;BME280;45684;48.358;10.746;2022-07-01T06:41:10;96354.09;;;15.76;100.00
10014;BME280;45684;48.358;10.746;2022-07-01T06:43:59;96364.34;;;15.67;100.00
10014;BME280;45684;48.358;10.746;2022-07-01T06:46:28;96370.22;;;15.57;100.00
10014;BME280;45684;48.358;10.746;2022-07-01T06:48:58;96365.47;;;15.42;100.00
10014;BME280;45684;48.358;10.746;2022-07-01T06:51:26;96365.47;;;15.42;100.00
10014;BME280;45684;48.358;10.746;2022-07-01T06:53:54;96370.25;;;15.45;100.00
10014;BME280;45684;48.358;10.746;2022-07-01T06:56:22;96365.94;;;15.31;100.00
10014;BME280;45684;48.358;10.746;2022-07-01T06:58:50;96374.03;;;15.16;100.00
10014;BME280;45684;48.358;10.746;2022-07-01T07:01:20;96376.84;;;15.19;100.00
10014;BME280;45684;48.358;10.746;2022-07-01T07:03:47;96380.94;;;15.13;100.00
10014;BME280;45684;48.358;10.746;2022-07-01T07:06:15;96372.09;;;15.16;100.00
10014;BME280;45684;48.358;10.746;2022-07-01T07:08:43;96378.56;;;15.12;100.00
10014;BME280;45684;48.358;10.746;2022-07-01T07:11:11;96392.63;;;15.26;100.00
10014;BME280;45684;48.358;10.746;2022-07-01T07:13:41;96390.59;;;15.23;100.00
10014;BME280;45684;48.358;10.746;2022-07-01T07:16:10;96404.56;;;15.21;100.00
10014;BME280;45684;48.358;10.746;2022-07-01T07:18:39;96405.34;;;15.22;100.00
10014;BME280;45684;48.358;10.746;2022-07-01T07:21:07;96399.66;;;15.15;100.00
10014;BME280;45684;48.358;10.746;2022-07-01T07:23:34;96393.41;;;15.14;100.00
10014;BME280;45684;48.358;10.746;2022-07-01T07:26:04;96407.19;;;15.30;100.00
10014;BME280;45684;48.358;10.746;2022-07-01T07:28:31;96405.47;;;15.25;100.00
10014;BME280;45684;48.358;10.746;2022-07-01T07:30:59;96417.00;;;15.10;100.00
10014;BME280;45684;48.358;10.746;2022-07-01T07:33:27;96411.78;;;15.05;100.00
10014;BME280;45684;48.358;10.746;2022-07-01T07:35:56;96414.06;;;15.03;100.00
10014;BME280;45684;48.358;10.746;2022-07-01T07:38:24;96418.19;;;15.21;100.00
10014;BME280;45684;48.358;10.746;2022-07-01T07:40:52;96417.72;;;15.31;100.00
10014;BME280;45684;48.358;10.746;2022-07-01T07:43:20;96411.59;;;15.59;100.00
10014;BME280;45684;48.358;10.746;2022-07-01T07:45:47;96404.88;;;15.81;100.00
10014;BME280;45684;48.358;10.746;2022-07-01T07:48:15;96420.44;;;15.80;100.00
10014;BME280;45684;48.358;10.746;2022-07-01T07:50:44;96422.47;;;15.96;100.00
10014;BME280;45684;48.358;10.746;2022-07-01T07:53:15;96433.94;;;15.89;100.00
10014;BME280;45684;48.358;10.746;2022-07-01T07:55:43;96438.41;;;15.81;100.00
10014;BME280;45684;48.358;10.746;2022-07-01T07:58:11;96437.50;;;15.77;100.00
10014;BME280;45684;48.358;10.746;2022-07-01T08:00:38;96445.34;;;15.67;100.00
10014;BME280;45684;48.358;10.746;2022-07-01T08:03:06;96446.47;;;15.78;100.00
10014;BME280;45684;48.358;10.746;2022-07-01T08:05:35;96434.97;;;15.97;100.00
10014;BME280;45684;48.358;10.746;2022-07-01T08:08:03;96441.69;;;15.99;100.00
10014;BME280;45684;48.358;10.746;2022-07-01T08:10:33;96446.72;;;16.13;100.00
10014;BME280;45684;48.358;10.746;2022-07-01T08:13:01;96457.22;;;15.99;100.00
10014;BME280;45684;48.358;10.746;2022-07-01T08:15:31;96461.81;;;15.95;100.00
10014;BME280;45684;48.358;10.746;2022-07-01T08:17:59;96460.78;;;15.87;100.00
10014;BME280;45684;48.358;10.746;2022-07-01T08:20:27;96461.34;;;15.80;100.00
10014;BME280;45684;48.358;10.746;2022-07-01T08:22:55;96453.97;;;15.69;100.00
10014;BME280;45684;48.358;10.746;2022-07-01T08:25:23;96455.22;;;15.84;100.00
10014;BME280;45684;48.358;10.746;2022-07-01T08:27:52;96466.69;;;15.89;100.00
10014;BME280;45684;48.358;10.746;2022-07-01T08:30:20;96469.75;;;15.88;100.00
10014;BME280;45684;48.358;10.746;2022-07-01T08:32:48;96465.63;;;16.06;100.00
10014;BME280;45684;48.358;10.746;2022-07-01T08:35:16;96469.94;;;16.07;100.00
10014;BME280;45684;48.358;10.746;2022-07-01T08:37:44;96459.44;;;16.21;100.00
10014;BME280;45684;48.358;10.746;2022-07-01T08:40:12;96467.97;;;16.32;100.00
10014;BME280;45684;48.358;10.746;2022-07-01T08:42:40;96465.78;;;16.38;100.00
10014;BME280;45684;48.358;10.746;2022-07-01T08:45:10;96469.59;;;16.49;100.00
10014;BME280;45684;48.358;10.746;2022-07-01T08:47:50;96473.56;;;16.23;100.00
10014;BME280;45684;48.358;10.746;2022-07-01T08:50:18;96467.25;;;16.35;100.00
10014;BME280;45684;48.358;10.746;2022-07-01T08:52:49;96475.16;;;16.12;100.00
10014;BME280;45684;48.358;10.746;2022-07-01T08:55:17;96471.09;;;16.06;100.00
10014;BME280;45684;48.358;10.746;2022-07-01T08:57:45;96478.06;;;16.31;100.00
10014;BME280;45684;48.358;10.746;2022-07-01T09:00:15;96471.50;;;16.32;100.00
10014;BME280;45684;48.358;10.746;2022-07-01T09:02:51;96469.63;;;16.37;100.00
10014;BME280;45684;48.358;10.746;2022-07-01T09:05:20;96473.09;;;16.21;100.00
10014;BME280;45684;48.358;10.746;2022-07-01T09:07:49;96478.66;;;16.25;100.00
10014;BME280;45684;48.358;10.746;2022-07-01T09:10:22;96486.50;;;16.26;100.00
10014;BME280;45684;48.358;10.746;2022-07-01T09:12:50;96487.91;;;16.08;100.00
10014;BME280;45684;48.358;10.746;2022-07-01T09:15:24;96477.44;;;16.10;100.00
10014;BME280;45684;48.358;10.746;2022-07-01T09:17:54;96491.41;;;16.08;100.00
10014;BME280;45684;48.358;10.746;2022-07-01T09:20:27;96478.25;;;15.98;100.00
10014;BME280;45684;48.358;10.746;2022-07-01T09:23:04;96473.34;;;16.04;100.00
10014;BME280;45684;48.358;10.746;2022-07-01T09:25:34;96486.66;;;16.05;100.00
10014;BME280;45684;48.358;10.746;2022-07-01T09:28:13;96486.34;;;15.82;100.00
10014;BME280;45684;48.358;10.746;2022-07-01T09:30:44;96490.66;;;15.84;100.00
10014;BME280;45684;48.358;10.746;2022-07-01T09:33:15;96488.13;;;16.03;100.00
10014;BME280;45684;48.358;10.746;2022-07-01T09:35:45;96496.31;;;16.27;100.00
10014;BME280;45684;48.358;10.746;2022-07-01T09:38:15;96499.47;;;16.29;100.00
10014;BME280;45684;48.358;10.746;2022-07-01T09:41:00;96495.16;;;16.28;100.00
10014;BME280;45684;48.358;10.746;2022-07-01T09:43:30;96497.91;;;16.16;100.00
10014;BME280;45684;48.358;10.746;2022-07-01T09:46:02;96498.81;;;16.08;100.00
10014;BME280;45684;48.358;10.746;2022-07-01T09:48:43;96508.25;;;16.23;100.00
10014;BME280;45684;48.358;10.746;2022-07-01T09:51:13;96509.13;;;16.27;100.00
10014;BME280;45684;48.358;10.746;2022-07-01T09:53:42;96511.28;;;16.33;100.00
10014;BME280;45684;48.358;10.746;2022-07-01T09:56:10;96512.97;;;16.38;100.00
10014;BME280;45684;48.358;10.746;2022-07-01T09:58:38;96519.00;;;16.44;100.00
10014;BME280;45684;48.358;10.746;2022-07-01T10:01:10;96520.56;;;16.57;100.00
10014;BME280;45684;48.358;10.746;2022-07-01T10:03:38;96527.41;;;16.51;100.00
10014;BME280;45684;48.358;10.746;2022-07-01T10:06:24;96528.88;;;16.48;100.00
10014;BME280;45684;48.358;10.746;2022-07-01T10:09:06;96533.75;;;16.55;100.00
10014;BME280;45684;48.358;10.746;2022-07-01T10:11:52;96528.66;;;16.41;100.00
10014;BME280;45684;48.358;10.746;2022-07-01T10:14:23;96526.75;;;16.42;100.00
10014;BME280;45684;48.358;10.746;2022-07-01T10:16:53;96529.25;;;16.22;100.00
10014;BME280;45684;48.358;10.746;2022-07-01T10:19:28;96531.31;;;16.13;100.00
10014;BME280;45684;48.358;10.746;2022-07-01T10:22:00;96533.25;;;16.25;100.00
10014;BME280;45684;48.358;10.746;2022-07-01T10:24:28;96542.00;;;16.30;100.00
10014;BME280;45684;48.358;10.746;2022-07-01T10:26:59;96538.13;;;16.31;100.00
10014;BME280;45684;48.358;10.746;2022-07-01T10:29:30;96537.25;;;16.15;100.00
10014;BME280;45684;48.358;10.746;2022-07-01T10:32:02;96556.09;;;16.32;100.00
10014;BME280;45684;48.358;10.746;2022-07-01T10:34:34;96551.09;;;16.35;100.00
10014;BME280;45684;48.358;10.746;2022-07-01T10:37:04;96553.03;;;16.34;100.00
10014;BME280;45684;48.358;10.746;2022-07-01T10:39:57;96556.06;;;16.45;100.00
10014;BME280;45684;48.358;10.746;2022-07-01T10:42:29;96555.03;;;16.62;100.00
10014;BME280;45684;48.358;10.746;2022-07-01T10:45:04;96556.47;;;16.71;100.00
10014;BME280;45684;48.358;10.746;2022-07-01T10:47:34;96555.00;;;16.74;100.00
10014;BME280;45684;48.358;10.746;2022-07-01T10:50:08;96559.81;;;16.52;100.00
10014;BME280;45684;48.358;10.746;2022-07-01T10:52:36;96556.72;;;16.54;100.00
10014;BME280;45684;48.358;10.746;2022-07-01T10:55:06;96555.41;;;16.36;100.00
10014;BME280;45684;48.358;10.746;2022-07-01T10:57:37;96555.03;;;16.49;100.00
10014;BME280;45684;48.358;10.746;2022-07-01T11:00:26;96562.75;;;16.72;100.00
10014;BME280;45684;48.358;10.746;2022-07-01T11:03:20;96557.16;;;16.80;100.00
10014;BME280;45684;48.358;10.746;2022-07-01T11:05:51;96550.94;;;16.96;100.00
10014;BME280;45684;48.358;10.746;2022-07-01T11:08:19;96555.50;;;16.92;100.00
10014;BME280;45684;48.358;10.746;2022-07-01T11:10:57;96561.88;;;16.96;100.00
10014;BME280;45684;48.358;10.746;2022-07-01T11:13:26;96555.81;;;16.74;100.00
10014;BME280;45684;48.358;10.746;2022-07-01T11:15:55;96549.38;;;16.82;100.00
10014;BME280;45684;48.358;10.746;2022-07-01T11:18:24;96553.00;;;16.99;100.00
10014;BME280;45684;48.358;10.746;2022-07-01T11:20:52;96548.50;;;17.06;100.00
10014;BME280;45684;48.358;10.746;2022-07-01T11:23:29;96557.91;;;17.21;100.00
10014;BME280;45684;48.358;10.746;2022-07-01T11:26:02;96549.25;;;17.19;100.00
10014;BME280;45684;48.358;10.746;2022-07-01T11:28:30;96555.91;;;17.06;100.00
10014;BME280;45684;48.358;10.746;2022-07-01T11:30:59;96558.22;;;17.20;100.00
10014;BME280;45684;48.358;10.746;2022-07-01T11:33:28;96562.38;;;17.14;100.00
10014;BME280;45684;48.358;10.746;2022-07-01T11:35:58;96554.97;;;17.14;100.00
10014;BME280;45684;48.358;10.746;2022-07-01T11:38:45;96558.88;;;17.01;100.00
10014;BME280;45684;48.358;10.746;2022-07-01T11:41:30;96555.59;;;17.23;100.00
10014;BME280;45684;48.358;10.746;2022-07-01T11:43:58;96565.94;;;17.30;100.00
10014;BME280;45684;48.358;10.746;2022-07-01T11:46:31;96570.59;;;17.29;100.00
10014;BME280;45684;48.358;10.746;2022-07-01T11:49:10;96579.94;;;17.28;100.00
10014;BME280;45684;48.358;10.746;2022-07-01T11:51:38;96586.59;;;17.15;100.00
10014;BME280;45684;48.358;10.746;2022-07-01T11:54:06;96590.69;;;17.21;100.00
10014;BME280;45684;48.358;10.746;2022-07-01T11:56:36;96591.88;;;17.08;100.00
10014;BME280;45684;48.358;10.746;2022-07-01T11:59:05;96603.31;;;16.98;100.00
10014;BME280;45684;48.358;10.746;2022-07-01T12:01:34;96596.94;;;16.94;100.00
10014;BME280;45684;48.358;10.746;2022-07-01T12:04:07;96600.59;;;16.98;100.00
10014;BME280;45684;48.358;10.746;2022-07-01T12:06:36;96609.91;;;16.97;100.00
10014;BME280;45684;48.358;10.746;2022-07-01T12:09:06;96618.75;;;17.06;100.00
10014;BME280;45684;48.358;10.746;2022-07-01T12:11:39;96625.63;;;17.00;100.00
10014;BME280;45684;48.358;10.746;2022-07-01T12:14:10;96630.41;;;16.91;100.00
10014;BME280;45684;48.358;10.746;2022-07-01T12:16:39;96634.53;;;16.85;100.00
10014;BME280;45684;48.358;10.746;2022-07-01T12:19:08;96642.16;;;16.54;100.00
10014;BME280;45684;48.358;10.746;2022-07-01T12:21:48;96635.69;;;16.59;100.00
10014;BME280;45684;48.358;10.746;2022-07-01T12:24:16;96629.31;;;16.55;100.00
10014;BME280;45684;48.358;10.746;2022-07-01T12:26:50;96615.81;;;16.34;100.00
10014;BME280;45684;48.358;10.746;2022-07-01T12:29:19;96612.28;;;16.33;100.00
10014;BME280;45684;48.358;10.746;2022-07-01T12:31:55;96611.03;;;16.06;100.00
10014;BME280;45684;48.358;10.746;2022-07-01T12:34:36;96601.59;;;16.16;100.00
10014;BME280;45684;48.358;10.746;2022-07-01T12:37:08;96616.38;;;16.27;100.00
10014;BME280;45684;48.358;10.746;2022-07-01T12:39:45;96627.72;;;16.17;100.00
10014;BME280;45684;48.358;10.746;2022-07-01T12:42:21;96628.88;;;16.16;100.00
10014;BME280;45684;48.358;10.746;2022-07-01T12:44:50;96639.34;;;16.26;100.00
10014;BME280;45684;48.358;10.746;2022-07-01T12:47:19;96640.69;;;16.45;100.00
10014;BME280;45684;48.358;10.746;2022-07-01T12:49:49;96635.81;;;16.38;100.00
10014;BME280;45684;48.358;10.746;2022-07-01T12:52:24;96627.75;;;16.42;100.00
10014;BME280;45684;48.358;10.746;2022-07-01T12:54:52;96607.50;;;16.43;100.00